createdAt,value
2023-04-29T00:01:05.344Z,68.93
2023-04-29T00:03:46.504Z,68.52
2023-04-29T00:06:17.261Z,68.62
2023-04-29T00:08:55.042Z,69.02
2023-04-29T00:11:25.094Z,68.99
2023-04-29T00:13:55.182Z,68.94
2023-04-29T00:16:25.482Z,69.11
2023-04-29T00:18:59.817Z,69.58
2023-04-29T00:21:30.456Z,69.41
2023-04-29T00:24:03.775Z,70.00
2023-04-29T00:26:36.198Z,69.98
2023-04-29T00:29:06.287Z,69.77
2023-04-29T00:31:37.632Z,70.13
2023-04-29T00:34:07.989Z,70.41
2023-04-29T00:36:38.036Z,70.51
2023-04-29T00:39:11.188Z,70.45
2023-04-29T00:41:42.767Z,70.33
2023-04-29T00:44:14.637Z,70.31
2023-04-29T00:46:47.087Z,70.27
2023-04-29T00:49:17.936Z,70.26
2023-04-29T00:51:53.532Z,69.83
2023-04-29T00:54:26.421Z,70.14
2023-04-29T00:56:59.956Z,69.84
2023-04-29T00:59:32.785Z,70.39
2023-04-29T01:02:04.197Z,70.23
2023-04-29T01:04:36.148Z,70.14
2023-04-29T01:07:13.040Z,70.77
2023-04-29T01:10:04.979Z,70.71
2023-04-29T01:12:43.333Z,70.74
2023-04-29T01:15:21.221Z,71.24
2023-04-29T01:17:58.879Z,71.54
2023-04-29T01:20:30.449Z,71.48
2023-04-29T01:23:02.490Z,71.10
2023-04-29T01:25:35.804Z,71.31
2023-04-29T01:28:29.077Z,71.14
2023-04-29T01:31:06.788Z,71.28
2023-04-29T01:33:47.315Z,71.63
2023-04-29T01:36:26.183Z,71.41
2023-04-29T01:39:08.241Z,72.02
2023-04-29T01:41:46.429Z,72.45
2023-04-29T01:44:26.964Z,72.64
2023-04-29T01:46:57.996Z,72.09
2023-04-29T01:49:39.852Z,72.21
2023-04-29T01:52:10.339Z,72.15
2023-04-29T01:54:41.977Z,72.33
2023-04-29T01:57:14.614Z,72.90
2023-04-29T02:00:00.258Z,72.91
2023-04-29T02:02:49.926Z,72.24
2023-04-29T02:05:36.930Z,71.99
2023-04-29T02:08:07.782Z,72.51
2023-04-29T02:10:45.368Z,72.65
2023-04-29T02:13:33.795Z,72.92
2023-04-29T02:16:11.523Z,72.78
2023-04-29T02:18:48.552Z,72.89
2023-04-29T02:21:21.277Z,72.97
2023-04-29T02:23:52.144Z,73.03
2023-04-29T02:26:22.122Z,72.56
2023-04-29T02:28:57.518Z,73.48
2023-04-29T02:31:30.934Z,74.62
2023-04-29T02:34:07.134Z,74.80
2023-04-29T02:36:40.670Z,75.77
2023-04-29T02:39:11.429Z,74.85
2023-04-29T02:41:42.370Z,75.17
2023-04-29T02:44:17.176Z,74.60
2023-04-29T02:46:53.294Z,74.34
2023-04-29T02:49:25.914Z,74.13
2023-04-29T02:51:56.632Z,73.84
2023-04-29T02:54:30.089Z,73.43
2023-04-29T02:57:01.565Z,73.55
2023-04-29T02:59:34.271Z,73.95
2023-04-29T03:02:04.894Z,74.01
2023-04-29T03:04:37.127Z,74.22
2023-04-29T03:07:10.843Z,74.25
2023-04-29T03:09:43.176Z,74.13
2023-04-29T03:12:20.485Z,73.80
2023-04-29T03:14:53.672Z,74.00
2023-04-29T03:17:24.196Z,75.34
2023-04-29T03:19:56.006Z,74.64
2023-04-29T03:22:26.958Z,75.02
2023-04-29T03:24:57.228Z,74.77
2023-04-29T03:27:29.879Z,74.85
2023-04-29T03:30:02.830Z,75.03
2023-04-29T03:32:35.605Z,74.68
2023-04-29T03:35:14.130Z,74.94
2023-04-29T03:37:57.792Z,74.64
2023-04-29T03:40:41.927Z,74.85
2023-04-29T03:43:14.531Z,74.81
2023-04-29T03:45:50.964Z,75.16
2023-04-29T03:48:30.350Z,75.52
2023-04-29T03:51:01.364Z,76.64
2023-04-29T03:53:31.749Z,76.12
2023-04-29T03:56:02.789Z,75.74
2023-04-29T03:58:34.847Z,75.57
2023-04-29T04:01:07.859Z,76.18
2023-04-29T04:03:45.794Z,76.48
2023-04-29T04:06:16.881Z,76.22
2023-04-29T04:08:50.044Z,76.21
2023-04-29T04:11:31.236Z,76.40
2023-04-29T04:14:07.278Z,80.50
2023-04-29T04:16:41.072Z,76.10
2023-04-29T04:19:12.714Z,75.59
2023-04-29T04:21:46.599Z,74.76
2023-04-29T04:24:20.094Z,75.29
2023-04-29T04:26:50.779Z,75.46
2023-04-29T04:29:25.775Z,75.44
2023-04-29T04:32:18.121Z,75.36
2023-04-29T04:34:48.675Z,75.19
2023-04-29T04:37:21.347Z,75.45
2023-04-29T04:39:56.451Z,75.88
2023-04-29T04:42:26.608Z,75.92
2023-04-29T04:45:02.152Z,76.96
2023-04-29T04:47:49.930Z,76.36
2023-04-29T04:50:25.505Z,76.71
2023-04-29T04:53:04.754Z,77.27
2023-04-29T04:55:53.235Z,77.04
2023-04-29T04:58:26.844Z,77.10
2023-04-29T05:00:57.296Z,76.85
2023-04-29T05:03:34.807Z,76.43
2023-04-29T05:06:05.299Z,76.66
2023-04-29T05:08:36.105Z,76.88
2023-04-29T05:11:08.213Z,76.72
2023-04-29T05:13:38.592Z,76.54
2023-04-29T05:16:17.102Z,76.79
2023-04-29T05:18:53.413Z,76.56
2023-04-29T05:21:25.670Z,80.97
2023-04-29T05:23:58.660Z,76.99
2023-04-29T05:26:29.797Z,76.29
2023-04-29T05:29:05.836Z,76.28
2023-04-29T05:31:42.983Z,75.83
2023-04-29T05:34:22.996Z,76.06
2023-04-29T05:36:53.193Z,75.75
2023-04-29T05:39:23.379Z,76.21
2023-04-29T05:42:07.050Z,76.23
2023-04-29T05:44:41.841Z,76.12
2023-04-29T05:47:19.401Z,75.95
2023-04-29T05:49:52.599Z,75.87
2023-04-29T05:52:23.071Z,75.36
2023-04-29T05:54:53.977Z,76.40
2023-04-29T05:57:24.258Z,76.76
2023-04-29T05:59:55.387Z,76.51
2023-04-29T06:02:25.522Z,76.55
2023-04-29T06:05:00.539Z,76.69
2023-04-29T06:07:41.864Z,76.53
2023-04-29T06:10:37.260Z,76.77
2023-04-29T06:13:11.823Z,76.19
2023-04-29T06:15:42.149Z,76.13
2023-04-29T06:18:14.650Z,75.99
2023-04-29T06:20:48.869Z,75.46
2023-04-29T06:23:23.501Z,75.35
2023-04-29T06:25:56.488Z,75.07
2023-04-29T06:28:30.174Z,75.07
2023-04-29T06:31:02.304Z,75.43
2023-04-29T06:33:34.397Z,75.49
2023-04-29T06:36:11.127Z,75.19
2023-04-29T06:38:41.149Z,75.17
2023-04-29T06:41:29.665Z,75.47
2023-04-29T06:44:19.464Z,75.36
2023-04-29T06:47:04.642Z,75.50
2023-04-29T06:50:00.591Z,74.96
2023-04-29T06:52:33.668Z,74.74
2023-04-29T06:55:03.858Z,74.70
2023-04-29T06:57:34.328Z,74.50
2023-04-29T07:00:06.975Z,73.67
2023-04-29T07:02:39.378Z,73.60
2023-04-29T07:05:10.721Z,73.76
2023-04-29T07:07:46.932Z,74.23
2023-04-29T07:10:19.362Z,74.25
2023-04-29T07:13:02.576Z,74.22
2023-04-29T07:15:33.512Z,74.14
2023-04-29T07:18:03.645Z,73.58
2023-04-29T07:20:41.327Z,73.05
2023-04-29T07:23:28.304Z,72.66
2023-04-29T07:26:00.538Z,72.90
2023-04-29T07:28:31.394Z,72.17
2023-04-29T07:31:02.351Z,71.05
2023-04-29T07:33:33.186Z,70.46
2023-04-29T07:36:07.499Z,69.91
2023-04-29T07:38:48.682Z,69.25
2023-04-29T07:41:22.561Z,69.68
2023-04-29T07:43:53.104Z,70.23
2023-04-29T07:46:25.065Z,70.69
2023-04-29T07:48:58.579Z,70.60
2023-04-29T07:51:30.307Z,70.53
2023-04-29T07:54:02.944Z,71.01
2023-04-29T07:56:35.111Z,71.03
2023-04-29T07:59:05.372Z,70.64
2023-04-29T08:01:35.704Z,70.30
2023-04-29T08:04:05.997Z,70.03
2023-04-29T08:06:41.906Z,70.16
2023-04-29T08:09:17.226Z,70.67
2023-04-29T08:11:47.901Z,70.91
2023-04-29T08:14:18.235Z,70.41
2023-04-29T08:17:00.482Z,70.23
2023-04-29T08:19:30.578Z,70.06
2023-04-29T08:22:04.379Z,69.35
2023-04-29T08:24:39.456Z,68.94
2023-04-29T08:27:09.665Z,69.30
2023-04-29T08:29:40.493Z,69.08
2023-04-29T08:32:10.688Z,68.43
2023-04-29T08:34:42.046Z,68.27
2023-04-29T08:37:17.673Z,68.14
2023-04-29T08:39:52.026Z,68.06
2023-04-29T08:42:33.399Z,67.93
2023-04-29T08:45:10.699Z,67.79
2023-04-29T08:47:42.689Z,67.60
2023-04-29T08:50:15.320Z,67.33
2023-04-29T08:52:45.473Z,67.47
2023-04-29T08:55:18.561Z,67.46
2023-04-29T08:57:51.795Z,67.36
2023-04-29T09:00:22.855Z,67.54
2023-04-29T09:02:54.555Z,67.43
2023-04-29T09:05:27.219Z,67.49
2023-04-29T09:08:00.017Z,67.56
2023-04-29T09:10:33.140Z,66.59
2023-04-29T09:13:05.643Z,66.54
2023-04-29T09:15:57.209Z,66.45
2023-04-29T09:18:45.929Z,66.84
2023-04-29T09:21:22.565Z,67.33
2023-04-29T09:23:55.588Z,67.31
2023-04-29T09:26:29.172Z,67.35
2023-04-29T09:29:21.957Z,67.36
2023-04-29T09:31:54.087Z,67.51
2023-04-29T09:34:35.891Z,67.86
2023-04-29T09:37:06.003Z,68.12
2023-04-29T09:39:42.751Z,68.42
2023-04-29T09:42:15.485Z,68.53
2023-04-29T09:44:47.432Z,68.64
2023-04-29T09:47:18.375Z,68.57
2023-04-29T09:49:50.253Z,68.40
2023-04-29T09:52:27.502Z,68.06
2023-04-29T09:55:08.717Z,66.99
2023-04-29T09:57:47.394Z,66.78
2023-04-29T10:00:19.919Z,66.63
2023-04-29T10:02:51.378Z,66.57
2023-04-29T10:05:22.949Z,66.31
2023-04-29T10:07:54.395Z,66.20
2023-04-29T10:10:29.556Z,66.29
2023-04-29T10:13:05.593Z,66.17
2023-04-29T10:15:43.223Z,66.25
2023-04-29T10:18:22.276Z,65.93
2023-04-29T10:20:53.934Z,66.51
2023-04-29T10:23:25.660Z,66.60
2023-04-29T10:25:56.640Z,65.88
2023-04-29T10:28:37.254Z,64.33
2023-04-29T10:31:13.600Z,63.52
2023-04-29T10:33:48.808Z,63.14
2023-04-29T10:36:19.214Z,63.13
2023-04-29T10:38:54.843Z,64.01
2023-04-29T10:41:30.253Z,63.68
2023-04-29T10:44:04.706Z,63.32
2023-04-29T10:46:35.403Z,63.83
2023-04-29T10:49:07.304Z,64.37
2023-04-29T10:51:42.332Z,64.38
2023-04-29T10:54:16.146Z,63.98
2023-04-29T10:56:51.383Z,62.62
2023-04-29T10:59:49.466Z,61.61
2023-04-29T11:02:21.069Z,62.90
2023-04-29T11:05:13.040Z,62.25
2023-04-29T11:07:44.575Z,62.22
2023-04-29T11:10:16.304Z,61.79
2023-04-29T11:12:46.474Z,62.03
2023-04-29T11:15:21.412Z,61.88
2023-04-29T11:17:53.041Z,62.26
2023-04-29T11:20:25.459Z,62.48
2023-04-29T11:22:58.001Z,62.97
2023-04-29T11:25:29.317Z,62.74
2023-04-29T11:28:02.049Z,62.77
2023-04-29T11:30:34.994Z,61.78
2023-04-29T11:33:05.650Z,61.66
2023-04-29T11:35:36.001Z,61.93
2023-04-29T11:38:08.004Z,61.62
2023-04-29T11:40:38.615Z,61.82
2023-04-29T11:43:16.088Z,62.31
2023-04-29T11:45:49.371Z,62.37
2023-04-29T11:48:24.378Z,62.49
2023-04-29T11:50:56.466Z,62.27
2023-04-29T11:53:28.897Z,62.25
2023-04-29T11:56:01.657Z,61.20
2023-04-29T11:58:31.752Z,61.13
2023-04-29T12:01:05.803Z,61.25
2023-04-29T12:03:36.969Z,61.60
2023-04-29T12:06:09.418Z,61.93
2023-04-29T12:08:39.462Z,61.64
2023-04-29T12:11:10.718Z,62.37
2023-04-29T12:13:49.464Z,61.99
2023-04-29T12:16:24.315Z,61.81
2023-04-29T12:18:55.078Z,61.41
2023-04-29T12:21:26.352Z,61.50
2023-04-29T12:23:56.698Z,61.39
2023-04-29T12:26:26.944Z,61.63
2023-04-29T12:28:57.969Z,61.16
2023-04-29T12:31:42.091Z,60.78
2023-04-29T12:34:12.228Z,60.80
2023-04-29T12:36:49.642Z,59.68
2023-04-29T12:39:21.417Z,59.64
2023-04-29T12:41:52.253Z,60.24
2023-04-29T12:44:23.281Z,60.39
2023-04-29T12:46:58.362Z,60.51
2023-04-29T12:49:29.001Z,60.84
2023-04-29T12:51:59.233Z,60.71
2023-04-29T12:54:29.305Z,60.90
2023-04-29T12:56:59.764Z,61.01
2023-04-29T12:59:29.781Z,61.35
2023-04-29T13:02:03.117Z,61.26
2023-04-29T13:04:36.182Z,61.02
2023-04-29T13:07:06.498Z,60.71
2023-04-29T13:09:42.628Z,61.04
2023-04-29T13:12:15.075Z,61.46
2023-04-29T13:14:45.670Z,60.99
2023-04-29T13:17:19.325Z,60.95
2023-04-29T13:19:51.710Z,60.89
2023-04-29T13:22:22.597Z,60.66
2023-04-29T13:24:53.499Z,59.89
2023-04-29T13:27:24.420Z,59.69
2023-04-29T13:29:54.640Z,59.89
2023-04-29T13:32:43.980Z,59.69
2023-04-29T13:35:19.528Z,55.96
2023-04-29T13:37:53.612Z,60.26
2023-04-29T13:40:27.727Z,60.30
2023-04-29T13:43:06.079Z,59.90
2023-04-29T13:45:42.882Z,59.45
2023-04-29T13:54:25.319Z,59.25
2023-04-29T13:57:12.410Z,59.59
2023-04-29T14:04:27.673Z,60.18
2023-04-29T14:06:58.471Z,60.55
2023-04-29T14:09:29.197Z,60.77
2023-04-29T14:11:59.452Z,60.92
2023-04-29T14:14:30.126Z,60.33
2023-04-29T14:17:01.482Z,60.60
2023-04-29T14:19:34.182Z,60.70
2023-04-29T14:22:04.491Z,60.77
2023-04-29T14:24:35.013Z,60.33
2023-04-29T14:27:05.527Z,60.32
2023-04-29T14:29:39.814Z,59.80
2023-04-29T14:32:12.333Z,58.01
2023-04-29T14:34:45.282Z,59.62
2023-04-29T14:37:15.677Z,59.63
2023-04-29T14:39:45.814Z,59.18
2023-04-29T14:42:16.911Z,59.19
2023-04-29T14:44:47.556Z,59.50
2023-04-29T14:47:17.583Z,59.85
2023-04-29T14:49:50.568Z,59.67
2023-04-29T14:52:21.712Z,59.57
2023-04-29T14:54:51.889Z,59.76
2023-04-29T14:57:22.019Z,59.60
2023-04-29T14:59:52.738Z,58.94
2023-04-29T15:02:25.855Z,58.54
2023-04-29T15:05:04.349Z,58.88
2023-04-29T15:07:35.817Z,58.65
2023-04-29T15:10:06.844Z,58.50
2023-04-29T15:12:39.283Z,58.33
2023-04-29T15:15:13.561Z,58.59
2023-04-29T15:17:43.917Z,58.85
2023-04-29T15:20:16.757Z,58.71
2023-04-29T15:22:47.502Z,58.34
2023-04-29T15:25:17.762Z,58.84
2023-04-29T15:27:48.032Z,58.27
2023-04-29T15:30:19.026Z,58.34
2023-04-29T15:32:49.201Z,58.09
2023-04-29T15:35:22.180Z,58.55
2023-04-29T15:37:52.341Z,58.64
2023-04-29T15:40:23.728Z,58.65
2023-04-29T15:42:55.921Z,58.63
2023-04-29T15:45:26.812Z,58.69
2023-04-29T15:48:00.197Z,58.91
2023-04-29T15:50:33.173Z,59.44
2023-04-29T15:53:03.386Z,59.61
2023-04-29T15:55:35.290Z,59.42
2023-04-29T15:58:05.804Z,59.81
2023-04-29T16:00:36.005Z,59.63
2023-04-29T16:03:06.928Z,59.61
2023-04-29T16:05:40.971Z,59.72
2023-04-29T16:08:11.231Z,59.57
2023-04-29T16:10:41.729Z,59.69
2023-04-29T16:13:11.819Z,59.74
2023-04-29T16:15:43.668Z,59.02
2023-04-29T16:18:15.213Z,58.99
2023-04-29T16:23:33.627Z,58.50
2023-04-29T16:26:06.924Z,58.27
2023-04-29T16:28:37.219Z,58.06
2023-04-29T16:31:08.373Z,57.72
2023-04-29T16:33:40.812Z,57.61
2023-04-29T16:36:14.057Z,56.86
2023-04-29T16:38:44.294Z,57.09
2023-04-29T16:41:17.288Z,57.31
2023-04-29T16:43:48.011Z,57.15
2023-04-29T16:46:21.636Z,57.17
2023-04-29T16:48:57.131Z,57.17
2023-04-29T16:51:30.616Z,57.07
2023-04-29T16:54:01.073Z,57.16
2023-04-29T16:56:31.738Z,57.11
2023-04-29T16:59:01.775Z,56.91
2023-04-29T17:01:34.994Z,57.16
2023-04-29T17:04:05.579Z,57.42
2023-04-29T17:06:40.102Z,57.15
2023-04-29T17:09:12.849Z,57.08
2023-04-29T17:11:43.725Z,57.10
2023-04-29T17:14:13.779Z,57.23
2023-04-29T17:16:46.885Z,56.90
2023-04-29T17:19:16.886Z,57.11
2023-04-29T17:21:50.730Z,56.94
2023-04-29T17:24:20.715Z,57.22
2023-04-29T17:26:51.020Z,57.04
2023-04-29T17:29:21.378Z,56.86
2023-04-29T17:31:59.391Z,57.10
2023-04-29T17:34:31.268Z,56.99
2023-04-29T17:37:04.610Z,56.81
2023-04-29T17:39:35.220Z,56.93
2023-04-29T17:42:05.271Z,57.12
2023-04-29T17:44:37.667Z,57.14
2023-04-29T17:47:10.394Z,57.05
2023-04-29T17:49:40.582Z,57.07
2023-04-29T17:52:14.226Z,57.44
2023-04-29T17:54:51.578Z,56.95
2023-04-29T17:57:21.490Z,57.47
2023-04-29T17:59:51.921Z,57.64
2023-04-29T18:02:37.029Z,57.70
2023-04-29T18:05:16.361Z,57.63
2023-04-29T18:07:48.886Z,57.94
2023-04-29T18:10:19.731Z,58.08
2023-04-29T18:12:50.052Z,58.12
2023-04-29T18:15:22.512Z,58.27
2023-04-29T18:17:54.506Z,58.35
2023-04-29T18:20:34.989Z,57.94
2023-04-29T18:23:07.669Z,58.56
2023-04-29T18:25:39.419Z,58.45
2023-04-29T18:28:24.228Z,58.75
2023-04-29T18:30:57.039Z,59.09
2023-04-29T18:33:31.134Z,59.16
2023-04-29T18:36:01.172Z,58.30
2023-04-29T18:38:34.315Z,59.38
2023-04-29T18:41:06.878Z,59.48
2023-04-29T18:43:37.437Z,59.77
2023-04-29T18:46:07.655Z,60.00
2023-04-29T18:48:42.206Z,59.83
2023-04-29T18:51:12.859Z,59.99
2023-04-29T18:53:45.481Z,60.33
2023-04-29T18:56:15.932Z,60.54
2023-04-29T18:58:45.991Z,60.94
2023-04-29T19:01:17.286Z,60.94
2023-04-29T19:03:49.989Z,61.22
2023-04-29T19:06:21.997Z,61.39
2023-04-29T19:08:55.847Z,61.53
2023-04-29T19:11:28.387Z,61.62
2023-04-29T19:13:58.655Z,62.03
2023-04-29T19:16:34.075Z,62.41
2023-04-29T19:19:06.910Z,62.75
2023-04-29T19:21:37.067Z,62.83
2023-04-29T19:24:09.907Z,62.74
2023-04-29T19:26:40.572Z,62.91
2023-04-29T19:29:10.796Z,63.20
2023-04-29T19:31:41.763Z,63.39
2023-04-29T19:34:11.849Z,63.26
2023-04-29T19:36:41.925Z,63.41
2023-04-29T19:39:15.102Z,63.78
2023-04-29T19:41:45.255Z,64.14
2023-04-29T19:44:15.409Z,63.78
2023-04-29T19:46:45.971Z,64.12
2023-04-29T19:49:16.507Z,64.14
2023-04-29T19:51:46.848Z,64.30
2023-04-29T19:54:26.492Z,64.52
2023-04-29T19:56:58.984Z,64.66
2023-04-29T19:59:28.989Z,64.48
2023-04-29T20:01:59.781Z,64.40
2023-04-29T20:04:30.120Z,64.68
2023-04-29T20:07:02.657Z,64.95
2023-04-29T20:09:35.330Z,65.04
2023-04-29T20:12:05.645Z,65.14
2023-04-29T20:14:36.621Z,65.29
2023-04-29T20:17:06.760Z,65.13
2023-04-29T20:19:36.971Z,65.17
2023-04-29T20:22:07.010Z,64.94
2023-04-29T20:24:39.816Z,65.16
2023-04-29T20:27:09.866Z,65.39
2023-04-29T20:29:47.848Z,65.41
2023-04-29T20:32:21.224Z,65.40
2023-04-29T20:34:51.401Z,65.51
2023-04-29T20:37:29.986Z,65.81
2023-04-29T20:40:02.636Z,65.60
2023-04-29T20:42:35.200Z,65.52
2023-04-29T20:45:05.347Z,65.87
2023-04-29T20:47:38.469Z,65.73
2023-04-29T20:50:09.817Z,65.81
2023-04-29T20:52:41.885Z,65.86
2023-04-29T20:55:14.841Z,66.07
2023-04-29T20:57:45.098Z,66.16
2023-04-29T21:00:15.968Z,66.09
2023-04-29T21:02:46.342Z,65.74
2023-04-29T21:05:18.874Z,65.95
2023-04-29T21:07:49.409Z,66.06
2023-04-29T21:10:22.821Z,66.14
2023-04-29T21:12:56.215Z,66.23
2023-04-29T21:15:29.566Z,66.24
2023-04-29T21:18:00.955Z,66.06
2023-04-29T21:20:40.270Z,66.50
2023-04-29T21:23:11.307Z,66.41
2023-04-29T21:25:44.069Z,66.32
2023-04-29T21:28:20.592Z,66.65
2023-04-29T21:30:51.056Z,66.77
2023-04-29T21:33:21.994Z,66.53
2023-04-29T21:35:53.215Z,66.86
2023-04-29T21:38:23.433Z,66.73
2023-04-29T21:40:56.203Z,66.44
2023-04-29T21:43:30.390Z,66.80
2023-04-29T21:46:00.784Z,66.85
2023-04-29T21:48:30.773Z,67.33
2023-04-29T21:51:06.711Z,67.34
2023-04-29T21:53:38.264Z,67.13
2023-04-29T21:56:11.196Z,67.31
2023-04-29T21:58:42.016Z,67.44
2023-04-29T22:01:26.902Z,67.00
2023-04-29T22:04:00.162Z,67.12
2023-04-29T22:06:35.300Z,67.12
2023-04-29T22:09:05.392Z,67.30
2023-04-29T22:11:38.757Z,67.16
2023-04-29T22:14:08.965Z,67.61
2023-04-29T22:16:39.229Z,67.65
2023-04-29T22:19:10.052Z,67.68
2023-04-29T22:21:43.169Z,67.39
2023-04-29T22:24:13.610Z,67.32
2023-04-29T22:26:51.507Z,67.55
2023-04-29T22:29:24.392Z,67.32
2023-04-29T22:31:56.658Z,67.65
2023-04-29T22:34:28.787Z,67.98
2023-04-29T22:36:58.780Z,67.85
2023-04-29T22:39:31.228Z,68.05
2023-04-29T22:42:04.876Z,67.79
2023-04-29T22:44:34.930Z,67.98
2023-04-29T22:47:14.121Z,67.60
2023-04-29T22:49:46.765Z,67.99
2023-04-29T22:52:19.082Z,67.89
2023-04-29T22:54:52.210Z,67.86
2023-04-29T22:57:24.839Z,67.60
2023-04-29T22:59:56.801Z,67.98
2023-04-29T23:02:30.260Z,67.60
2023-04-29T23:05:01.497Z,67.98
2023-04-29T23:07:31.712Z,67.87
2023-04-29T23:10:01.738Z,67.94
2023-04-29T23:12:34.896Z,68.21
2023-04-29T23:15:05.233Z,68.46
2023-04-29T23:17:37.784Z,68.50
2023-04-29T23:20:09.407Z,68.40
2023-04-29T23:22:39.593Z,68.04
2023-04-29T23:25:11.590Z,67.97
2023-04-29T23:27:56.468Z,67.91
2023-04-29T23:30:26.537Z,67.92
2023-04-29T23:32:57.078Z,67.96
2023-04-29T23:35:27.478Z,68.20
2023-04-29T23:37:57.927Z,68.37
2023-04-29T23:40:28.089Z,68.14
2023-04-29T23:43:00.972Z,68.16
2023-04-29T23:45:30.997Z,68.40
2023-04-29T23:48:01.252Z,68.10
2023-04-29T23:50:31.653Z,68.21
2023-04-29T23:53:01.747Z,68.25
2023-04-29T23:55:31.942Z,68.51
2023-04-29T23:58:04.613Z,68.42
